Time;durP1;ratioP1;P1;durP2;ratioP2;P2;SDS_P1;SDS_P2;PMS_P1;PMS_P2;Temp;Humidity;BMP_temperature;BMP_pressure;BME280_temperature;BME280_humidity;BME280_pressure;Samples;Min_cycle;Max_cycle;Signal;HPM_P1;HPM_P2
2021/12/28 00:00:16;;;;;;;3.35;3.25;;;;;;;5.11;100.00;99188.94;4378558;32;20163;-77
2021/12/28 00:02:43;;;;;;;3.40;3.30;;;;;;;5.43;100.00;99247.91;4370612;32;20654;-75
2021/12/28 00:05:09;;;;;;;3.60;3.50;;;;;;;5.39;100.00;99245.50;4359437;32;20596;-75
2021/12/28 00:07:35;;;;;;;3.70;3.50;;;;;;;4.95;100.00;99190.63;4364358;32;20091;-75
2021/12/28 00:10:00;;;;;;;4.28;4.07;;;;;;;5.29;100.00;99248.66;4364799;32;20978;-75
2021/12/28 00:12:29;;;;;;;3.50;3.40;;;;;;;4.92;100.00;99183.84;4364606;32;20066;-76
2021/12/28 00:15:19;;;;;;;4.97;4.78;;;;;;;5.22;100.00;99239.50;4358535;32;20076;-76
2021/12/28 00:18:04;;;;;;;3.15;3.05;;;;;;;5.10;100.00;99218.44;4373842;32;20483;-77
2021/12/28 00:20:33;;;;;;;3.90;3.70;;;;;;;5.14;100.00;99225.16;4362488;32;20104;-76
2021/12/28 00:22:58;;;;;;;4.53;4.32;;;;;;;5.11;100.00;99235.72;4355048;32;20492;-75
2021/12/28 00:25:24;;;;;;;3.30;3.20;;;;;;;5.11;100.00;99220.12;4355737;32;20085;-75
2021/12/28 00:27:49;;;;;;;4.45;4.28;;;;;;;5.08;100.00;99222.87;4365335;32;20659;-75
2021/12/28 00:30:15;;;;;;;25.25;23.95;;;;;;;5.10;100.00;99215.84;4234556;32;20338;-77
2021/12/28 00:32:40;;;;;;;3.42;3.33;;;;;;;5.12;100.00;99210.56;4368561;32;20080;-75
2021/12/28 00:35:06;;;;;;;4.07;3.87;;;;;;;5.08;100.00;99209.88;4365942;32;20362;-73
2021/12/28 00:37:31;;;;;;;3.72;3.53;;;;;;;5.06;100.00;99208.28;4373617;32;20079;-75
2021/12/28 00:39:57;;;;;;;4.95;4.75;;;;;;;4.34;100.00;99083.00;4369382;32;20069;-75
2021/12/28 00:42:23;;;;;;;3.50;3.40;;;;;;;4.22;100.00;99061.13;4373144;32;20088;-75
2021/12/28 00:44:48;;;;;;;3.58;3.45;;;;;;;5.21;100.00;99210.03;4355000;32;20080;-76
2021/12/28 00:47:13;;;;;;;3.30;3.20;;;;;;;4.81;100.00;99129.00;4366957;32;20445;-77
2021/12/28 00:49:39;;;;;;;3.35;3.25;;;;;;;5.27;100.00;99182.88;4368035;32;20522;-75
2021/12/28 00:52:04;;;;;;;4.22;4.03;;;;;;;5.24;100.00;99177.84;4360545;32;21073;-77
2021/12/28 00:54:29;;;;;;;3.28;3.17;;;;;;;5.28;100.00;99181.97;4348236;32;20253;-76
2021/12/28 00:56:55;;;;;;;4.85;4.65;;;;;;;5.29;100.00;99179.28;4375769;32;20539;-76
2021/12/28 00:59:20;;;;;;;3.33;3.22;;;;;;;5.37;100.00;99184.03;4353432;32;20087;-76
2021/12/28 01:01:47;;;;;;;3.50;3.40;;;;;;;5.40;100.00;99189.91;4370210;32;20507;-77
2021/12/28 01:04:12;;;;;;;3.20;3.10;;;;;;;4.98;100.00;99107.31;4358202;32;20093;-75
2021/12/28 01:06:38;;;;;;;3.30;3.20;;;;;;;4.50;100.00;99023.28;4369767;32;20080;-75
2021/12/28 01:09:03;;;;;;;4.45;4.25;;;;;;;5.43;100.00;99172.47;4356498;32;20073;-76
2021/12/28 01:11:28;;;;;;;3.30;3.20;;;;;;;5.45;100.00;99174.03;4367223;32;20089;-75
2021/12/28 01:13:54;;;;;;;5.70;5.25;;;;;;;5.45;100.00;99166.25;4374153;32;20064;-75
2021/12/28 01:16:19;;;;;;;3.25;3.15;;;;;;;5.09;100.00;99106.69;4367339;32;20061;-77
2021/12/28 01:18:45;;;;;;;3.33;3.22;;;;;;;4.81;100.00;99056.22;4357273;32;20080;-77
2021/12/28 01:21:10;;;;;;;3.20;3.10;;;;;;;5.56;100.00;99171.69;4358322;32;20061;-75
2021/12/28 01:23:36;;;;;;;3.20;3.10;;;;;;;5.60;100.00;99168.00;4356457;32;20473;-76
2021/12/28 01:26:01;;;;;;;4.47;4.28;;;;;;;5.59;100.00;99168.94;4374005;32;21219;-75
2021/12/28 01:28:27;;;;;;;3.50;3.40;;;;;;;5.53;100.00;99160.59;4350879;32;20069;-75
2021/12/28 01:30:52;;;;;;;4.95;4.75;;;;;;;5.58;100.00;99164.63;4365497;32;20515;-76
2021/12/28 01:33:17;;;;;;;3.22;3.12;;;;;;;5.62;100.00;99162.72;4370139;32;20209;-76
2021/12/28 01:35:43;;;;;;;3.30;3.20;;;;;;;5.71;100.00;99162.19;4367442;32;20089;-77
2021/12/28 01:38:08;;;;;;;3.22;3.12;;;;;;;5.65;100.00;99154.72;4354661;32;20100;-78
2021/12/28 01:40:36;;;;;;;3.53;3.42;;;;;;;5.71;100.00;99159.59;4369548;32;20088;-76
2021/12/28 01:43:11;;;;;;;4.80;4.60;;;;;;;4.68;100.00;98991.09;4372371;32;20216;-76
2021/12/28 01:45:36;;;;;;;3.20;3.10;;;;;;;5.70;100.00;99157.06;4357727;32;20126;-76
2021/12/28 01:48:02;;;;;;;5.10;4.90;;;;;;;4.76;100.00;98994.09;4376977;32;20650;-76
2021/12/28 01:50:28;;;;;;;3.20;3.10;;;;;;;5.76;100.00;99154.13;4365456;32;20069;-77
2021/12/28 01:52:53;;;;;;;4.28;4.07;;;;;;;5.77;100.00;99146.22;4360960;32;20074;-77
2021/12/28 01:55:18;;;;;;;3.67;3.58;;;;;;;5.73;100.00;99155.16;4377006;32;20585;-76
2021/12/28 01:57:44;;;;;;;3.37;3.28;;;;;;;5.61;100.00;99127.19;4356808;32;20081;-75
2021/12/28 02:00:10;;;;;;;3.30;3.20;;;;;;;4.57;100.00;98964.87;4367018;32;20347;-76
2021/12/28 02:02:36;;;;;;;3.37;3.28;;;;;;;5.74;100.00;99154.19;4356301;32;20414;-75
2021/12/28 02:05:01;;;;;;;4.80;4.60;;;;;;;5.73;100.00;99144.72;4363071;32;20276;-74
2021/12/28 02:07:26;;;;;;;3.60;3.50;;;;;;;5.75;100.00;99142.00;4357926;32;20267;-76
2021/12/28 02:09:52;;;;;;;4.72;4.53;;;;;;;5.43;100.00;99087.44;4367487;32;20077;-76
2021/12/28 02:12:17;;;;;;;3.40;3.30;;;;;;;5.78;100.00;99144.47;4372065;32;20066;-75
2021/12/28 02:14:44;;;;;;;3.20;3.10;;;;;;;5.67;100.00;99124.22;4365699;32;20243;-76
2021/12/28 02:17:10;;;;;;;3.20;3.10;;;;;;;5.76;100.00;99143.72;4359305;32;20590;-76
2021/12/28 02:19:36;;;;;;;3.50;3.40;;;;;;;5.70;100.00;99138.84;4378458;32;20084;-77
2021/12/28 02:22:01;;;;;;;4.80;4.60;;;;;;;5.67;100.00;99133.81;4367093;32;20081;-76
2021/12/28 02:24:26;;;;;;;3.37;3.28;;;;;;;5.63;100.00;99135.75;4369769;32;20066;-75
2021/12/28 02:26:52;;;;;;;4.87;4.68;;;;;;;5.65;100.00;99130.47;4364279;32;20531;-75
2021/12/28 02:29:17;;;;;;;4.60;4.40;;;;;;;5.67;100.00;99119.03;4373321;32;20057;-76
2021/12/28 02:31:42;;;;;;;3.30;3.20;;;;;;;5.85;100.00;99129.31;4369491;32;20155;-75
2021/12/28 02:34:08;;;;;;;3.47;3.37;;;;;;;5.74;100.00;99115.16;4357217;32;21062;-76
2021/12/28 02:36:33;;;;;;;3.40;3.30;;;;;;;5.95;100.00;99128.75;4380708;32;20068;-75
2021/12/28 02:38:58;;;;;;;5.05;4.85;;;;;;;6.02;100.00;99130.97;4366448;32;20088;-76
2021/12/28 02:41:24;;;;;;;3.40;3.30;;;;;;;6.08;100.00;99130.63;4357816;32;20138;-76
2021/12/28 02:43:49;;;;;;;4.22;4.05;;;;;;;5.99;100.00;99100.72;4364785;32;20579;-76
2021/12/28 02:46:16;;;;;;;3.37;3.28;;;;;;;6.18;100.00;99121.34;4360694;32;20092;-75
2021/12/28 02:48:42;;;;;;;3.50;3.40;;;;;;;6.17;100.00;99125.72;4364816;32;20084;-76
2021/12/28 02:51:10;;;;;;;3.60;3.50;;;;;;;6.18;100.00;99129.16;4364232;32;20089;-75
2021/12/28 02:53:35;;;;;;;3.35;3.25;;;;;;;6.18;100.00;99118.72;4368962;32;20084;-76
2021/12/28 02:56:00;;;;;;;4.85;4.65;;;;;;;6.21;100.00;99122.91;4364400;32;20073;-76
2021/12/28 02:58:34;;;;;;;3.50;3.40;;;;;;;6.26;100.00;99132.13;4375430;32;20662;-75
2021/12/28 03:01:01;;;;;;;4.72;4.53;;;;;;;6.26;100.00;99116.50;4366266;32;20084;-75
2021/12/28 03:03:27;;;;;;;3.50;3.40;;;;;;;6.18;100.00;99103.94;4380031;32;20533;-76
2021/12/28 03:05:54;;;;;;;4.75;4.55;;;;;;;6.29;100.00;99118.91;4366702;32;20480;-75
2021/12/28 03:08:22;;;;;;;3.40;3.30;;;;;;;6.30;100.00;99101.53;4357896;32;20176;-77
2021/12/28 03:10:48;;;;;;;3.85;3.67;;;;;;;6.43;100.00;99109.44;4358937;32;20073;-77
2021/12/28 03:13:15;;;;;;;3.30;3.20;;;;;;;6.33;100.00;99089.13;4354605;32;20429;-75
2021/12/28 03:15:41;;;;;;;3.67;3.58;;;;;;;6.46;100.00;99101.44;4359256;32;20057;-74
2021/12/28 03:18:06;;;;;;;3.30;3.20;;;;;;;6.47;100.00;99103.94;4355275;32;20080;-75
2021/12/28 03:20:31;;;;;;;3.47;3.37;;;;;;;6.55;100.00;99095.66;4359606;32;20080;-75
2021/12/28 03:22:57;;;;;;;4.57;4.37;;;;;;;6.59;100.00;99086.72;4379176;32;20547;-74
2021/12/28 03:25:22;;;;;;;3.30;3.20;;;;;;;6.52;100.00;99075.00;4374293;32;20300;-76
2021/12/28 03:27:48;;;;;;;3.85;3.70;;;;;;;6.66;100.00;99081.97;4375497;32;20069;-74
2021/12/28 03:30:14;;;;;;;5.25;5.05;;;;;;;6.65;100.00;99072.47;4358446;32;20135;-76
2021/12/28 03:32:39;;;;;;;3.58;3.47;;;;;;;6.73;100.00;99073.66;4368420;32;20129;-76
2021/12/28 03:35:06;;;;;;;4.03;3.83;;;;;;;6.66;100.00;99066.34;4371908;32;20173;-75
2021/12/28 03:37:31;;;;;;;3.80;3.60;;;;;;;6.70;100.00;99075.62;4367166;32;20085;-77
2021/12/28 03:39:57;;;;;;;4.75;4.55;;;;;;;6.68;100.00;99067.06;4357509;32;20177;-75
2021/12/28 03:42:22;;;;;;;3.90;3.70;;;;;;;6.75;100.00;99063.13;4363710;32;20500;-76
2021/12/28 03:44:48;;;;;;;3.28;3.17;;;;;;;6.43;100.00;99018.22;4371595;32;20077;-75
2021/12/28 03:47:13;;;;;;;3.30;3.20;;;;;;;6.56;100.00;99042.59;4369215;32;20108;-76
2021/12/28 03:49:38;;;;;;;3.60;3.50;;;;;;;6.69;100.00;99059.12;4364817;32;20093;-75
2021/12/28 03:52:06;;;;;;;4.75;4.55;;;;;;;6.70;100.00;99053.00;4366098;32;20065;-77
2021/12/28 03:54:32;;;;;;;3.40;3.30;;;;;;;6.72;100.00;99055.53;4367342;32;20582;-75
2021/12/28 03:56:57;;;;;;;4.85;4.65;;;;;;;6.74;100.00;99045.84;4366063;32;20066;-77
2021/12/28 03:59:23;;;;;;;3.60;3.50;;;;;;;6.74;100.00;99046.66;4363728;32;20535;-75
2021/12/28 04:01:48;;;;;;;3.95;3.80;;;;;;;6.51;100.00;99005.56;4371287;32;20069;-76
2021/12/28 04:04:13;;;;;;;3.60;3.50;;;;;;;6.70;100.00;99034.75;4352620;32;20069;-76
2021/12/28 04:06:39;;;;;;;3.40;3.30;;;;;;;6.80;100.00;99042.84;4368243;32;20070;-76
2021/12/28 04:09:06;;;;;;;4.78;4.57;;;;;;;6.81;100.00;99039.28;4373858;32;20070;-77
2021/12/28 04:11:32;;;;;;;3.30;3.20;;;;;;;6.82;100.00;99040.16;4361327;32;20073;-76
2021/12/28 04:14:00;;;;;;;5.15;4.90;;;;;;;6.69;100.00;99025.25;4370297;32;20695;-76
2021/12/28 04:16:26;;;;;;;3.67;3.58;;;;;;;6.73;100.00;99016.28;4373533;32;20139;-76
2021/12/28 04:18:51;;;;;;;4.80;4.60;;;;;;;6.85;100.00;99045.16;4352913;32;20089;-76
2021/12/28 04:21:17;;;;;;;3.42;3.33;;;;;;;6.83;100.00;99029.59;4374343;32;20286;-75
2021/12/28 04:23:42;;;;;;;3.58;3.47;;;;;;;6.91;100.00;99039.53;4354512;32;20115;-75
2021/12/28 04:26:08;;;;;;;3.80;3.70;;;;;;;6.96;100.00;99027.88;4357662;32;20629;-75
2021/12/28 04:28:33;;;;;;;3.60;3.50;;;;;;;6.86;100.00;99010.31;4358240;32;20167;-77
2021/12/28 04:31:00;;;;;;;5.30;5.10;;;;;;;6.45;100.00;98948.63;4364208;32;20060;-75
2021/12/28 04:33:25;;;;;;;3.80;3.60;;;;;;;7.00;100.00;99031.13;4367681;32;20073;-77
2021/12/28 04:35:50;;;;;;;4.62;4.43;;;;;;;7.02;100.00;99025.84;4365141;32;20066;-76
2021/12/28 04:38:16;;;;;;;3.50;3.40;;;;;;;6.22;100.00;98879.75;4381088;32;20081;-74
2021/12/28 04:40:41;;;;;;;3.60;3.50;;;;;;;7.06;100.00;99020.31;4367663;32;20088;-77
2021/12/28 04:43:07;;;;;;;3.70;3.60;;;;;;;7.06;100.00;99020.31;4367070;32;20447;-76
2021/12/28 04:45:38;;;;;;;3.40;3.30;;;;;;;7.07;100.00;99015.91;4370222;32;20592;-76
2021/12/28 04:48:04;;;;;;;4.87;4.68;;;;;;;6.55;100.00;98934.06;4362659;32;20143;-76
2021/12/28 04:50:36;;;;;;;3.40;3.30;;;;;;;7.09;100.00;99019.25;4369114;32;20143;-74
2021/12/28 04:53:08;;;;;;;5.05;4.85;;;;;;;6.36;100.00;98883.13;4363832;32;20097;-73
2021/12/28 04:55:33;;;;;;;3.83;3.70;;;;;;;7.10;100.00;99006.12;4379708;32;21006;-75
2021/12/28 04:57:58;;;;;;;4.65;4.45;;;;;;;7.10;100.00;99002.69;4372173;32;20088;-76
2021/12/28 05:00:24;;;;;;;3.60;3.50;;;;;;;7.13;100.00;99005.09;4370351;32;20540;-76
2021/12/28 05:02:50;;;;;;;4.22;4.05;;;;;;;6.98;100.00;98973.03;4356179;32;20081;-76
2021/12/28 05:05:16;;;;;;;3.55;3.45;;;;;;;6.78;100.00;98938.62;4359915;32;20075;-77
2021/12/28 05:07:41;;;;;;;3.37;3.28;;;;;;;7.17;100.00;98990.91;4367019;32;20069;-76
2021/12/28 05:10:07;;;;;;;4.35;4.15;;;;;;;7.16;100.00;99000.50;4372059;32;20058;-76
2021/12/28 05:12:32;;;;;;;3.50;3.40;;;;;;;7.11;100.00;98988.69;4373868;32;20507;-76
2021/12/28 05:14:59;;;;;;;5.25;5.05;;;;;;;7.19;100.00;99002.06;4366444;32;20073;-76
2021/12/28 05:17:25;;;;;;;3.70;3.60;;;;;;;7.22;100.00;98999.28;4371670;32;20061;-76
2021/12/28 05:19:51;;;;;;;4.47;4.28;;;;;;;6.81;100.00;98918.53;4365588;32;20696;-76
2021/12/28 05:22:16;;;;;;;3.70;3.60;;;;;;;7.26;100.00;98995.53;4369214;32;20089;-77
2021/12/28 05:24:41;;;;;;;3.60;3.50;;;;;;;7.12;100.00;98970.34;4372030;32;20064;-77
2021/12/28 05:27:07;;;;;;;3.50;3.40;;;;;;;7.02;100.00;98948.41;4364586;32;20292;-77
2021/12/28 05:29:32;;;;;;;3.40;3.30;;;;;;;7.04;100.00;98956.97;4374241;32;20077;-77
2021/12/28 05:31:57;;;;;;;5.55;5.35;;;;;;;6.10;100.00;98798.03;4364174;32;20563;-76
2021/12/28 05:34:23;;;;;;;3.80;3.70;;;;;;;7.25;100.00;98979.97;4359572;32;20077;-76
2021/12/28 05:36:48;;;;;;;3.80;3.65;;;;;;;7.26;100.00;98982.47;4372665;32;20370;-77
2021/12/28 05:39:14;;;;;;;3.60;3.50;;;;;;;7.25;100.00;98966.91;4355096;32;20458;-76
2021/12/28 05:41:39;;;;;;;3.70;3.60;;;;;;;7.25;100.00;98987.78;4382063;32;20187;-76
2021/12/28 05:44:04;;;;;;;4.62;4.43;;;;;;;6.46;100.00;98844.28;4369371;32;20066;-76
2021/12/28 05:46:30;;;;;;;3.70;3.60;;;;;;;7.22;100.00;98962.75;4365620;32;20080;-78
2021/12/28 05:48:55;;;;;;;4.62;4.43;;;;;;;7.23;100.00;98966.19;4367850;32;20133;-77
2021/12/28 05:51:21;;;;;;;3.85;3.75;;;;;;;7.12;100.00;98946.03;4358758;32;20100;-75
2021/12/28 05:53:46;;;;;;;3.40;3.30;;;;;;;7.25;100.00;98964.31;4371235;32;20065;-77
2021/12/28 05:56:12;;;;;;;3.50;3.40;;;;;;;7.11;100.00;98937.34;4356173;32;20080;-76
2021/12/28 05:58:37;;;;;;;3.70;3.60;;;;;;;7.25;100.00;98953.88;4375012;32;20073;-74
2021/12/28 06:01:02;;;;;;;5.03;4.82;;;;;;;7.32;100.00;98955.16;4367067;32;20088;-76
2021/12/28 06:03:28;;;;;;;3.75;3.65;;;;;;;7.29;100.00;98961.38;4373108;32;20472;-75
2021/12/28 06:05:53;;;;;;;3.62;3.53;;;;;;;6.93;100.00;98902.06;4372667;32;20123;-77
2021/12/28 06:08:18;;;;;;;3.62;3.53;;;;;;;7.31;100.00;98956.91;4362252;32;20069;-77
2021/12/28 06:10:44;;;;;;;3.53;3.42;;;;;;;7.31;100.00;98954.28;4372678;32;20623;-75
2021/12/28 06:13:09;;;;;;;3.67;3.58;;;;;;;7.19;100.00;98932.47;4367063;32;20131;-76
2021/12/28 06:15:34;;;;;;;3.60;3.50;;;;;;;7.22;100.00;98935.81;4375304;32;20073;-76
2021/12/28 06:18:00;;;;;;;4.93;4.72;;;;;;;7.33;100.00;98962.84;4357167;32;20153;-75
2021/12/28 06:20:25;;;;;;;4.00;3.80;;;;;;;7.33;100.00;98957.63;4359632;32;20347;-75
2021/12/28 06:22:50;;;;;;;4.75;4.55;;;;;;;7.02;100.00;98903.25;4366410;32;20085;-76
2021/12/28 06:25:16;;;;;;;3.80;3.70;;;;;;;6.31;100.00;98786.19;4357507;32;20486;-74
2021/12/28 06:27:41;;;;;;;3.40;3.30;;;;;;;7.35;100.00;98952.31;4376035;32;20066;-76
2021/12/28 06:30:07;;;;;;;4.10;3.90;;;;;;;7.17;100.00;98936.94;4383301;32;20122;-75
2021/12/28 06:32:32;;;;;;;3.80;3.70;;;;;;;7.37;100.00;98966.09;4352853;32;20676;-76
2021/12/28 06:34:58;;;;;;;5.25;5.05;;;;;;;7.23;100.00;98934.87;4362392;32;20077;-76
2021/12/28 06:37:23;;;;;;;4.20;4.00;;;;;;;6.44;100.00;98812.28;4365244;32;20087;-76
2021/12/28 06:39:48;;;;;;;3.75;3.62;;;;;;;7.37;100.00;98966.09;4363262;32;20069;-76
2021/12/28 06:42:14;;;;;;;3.78;3.67;;;;;;;7.39;100.00;98957.22;4366587;32;20077;-76
2021/12/28 06:44:42;;;;;;;3.50;3.40;;;;;;;7.26;100.00;98929.47;4384893;32;20072;-75
2021/12/28 06:47:08;;;;;;;3.70;3.60;;;;;;;7.15;100.00;98907.53;4368560;32;20334;-74
2021/12/28 06:49:33;;;;;;;3.42;3.33;;;;;;;7.42;100.00;98952.75;4373637;32;20653;-76
2021/12/28 06:51:58;;;;;;;5.10;4.90;;;;;;;6.92;100.00;98863.91;4362809;32;20250;-77
2021/12/28 06:54:24;;;;;;;3.40;3.30;;;;;;;7.38;100.00;98939.09;4367002;32;20085;-77
2021/12/28 06:56:49;;;;;;;4.80;4.55;;;;;;;7.46;100.00;98955.06;4370282;32;20088;-76
2021/12/28 06:59:14;;;;;;;3.65;3.55;;;;;;;7.47;100.00;98961.94;4352381;32;20437;-76
2021/12/28 07:01:40;;;;;;;3.60;3.50;;;;;;;7.45;100.00;98979.47;4378613;32;20068;-75
2021/12/28 07:04:05;;;;;;;4.03;3.83;;;;;;;7.28;100.00;98935.41;4364498;32;20292;-75
2021/12/28 07:06:30;;;;;;;3.60;3.50;;;;;;;7.44;100.00;98970.00;4371300;32;20481;-75
2021/12/28 07:08:56;;;;;;;5.07;4.87;;;;;;;7.45;100.00;98963.81;4367240;32;20681;-76
2021/12/28 07:11:21;;;;;;;3.60;3.50;;;;;;;7.48;100.00;98966.22;4367299;32;20085;-76
2021/12/28 07:13:47;;;;;;;3.92;3.78;;;;;;;7.49;100.00;98967.88;4363149;32;20092;-76
2021/12/28 07:16:12;;;;;;;3.60;3.50;;;;;;;7.52;100.00;98962.47;4367403;32;20847;-75
2021/12/28 07:18:38;;;;;;;3.65;3.55;;;;;;;7.21;100.00;98915.88;4355272;32;20142;-74
2021/12/28 07:21:03;;;;;;;5.35;5.15;;;;;;;7.50;100.00;98953.91;4356838;32;20075;-77
2021/12/28 07:23:29;;;;;;;3.60;3.50;;;;;;;7.48;100.00;98942.75;4365692;32;20659;-76
2021/12/28 07:25:55;;;;;;;5.10;4.90;;;;;;;6.70;100.00;98825.38;4383648;32;20584;-76
2021/12/28 07:28:21;;;;;;;3.58;3.47;;;;;;;7.43;100.00;98943.97;4379577;32;20066;-76
2021/12/28 07:30:47;;;;;;;3.72;3.62;;;;;;;6.39;100.00;98789.16;4369330;32;20139;-77
2021/12/28 07:33:12;;;;;;;3.40;3.30;;;;;;;7.23;100.00;98896.56;4353907;32;20077;-75
2021/12/28 07:35:38;;;;;;;3.50;3.40;;;;;;;7.33;100.00;98930.72;4367528;32;20486;-76
2021/12/28 07:38:03;;;;;;;5.05;4.85;;;;;;;7.29;100.00;98927.47;4362331;32;20083;-76
2021/12/28 07:40:29;;;;;;;3.60;3.50;;;;;;;7.19;100.00;98919.41;4370180;32;20142;-75
2021/12/28 07:42:54;;;;;;;5.30;5.10;;;;;;;6.83;100.00;98880.97;4367848;32;20081;-76
2021/12/28 07:45:19;;;;;;;3.42;3.33;;;;;;;7.00;100.00;98926.81;4366565;32;20609;-75
2021/12/28 07:47:45;;;;;;;3.45;3.35;;;;;;;6.87;100.00;98942.41;4367655;32;20085;-75
2021/12/28 07:50:12;;;;;;;3.60;3.50;;;;;;;6.77;100.00;98934.34;4361347;32;20096;-74
2021/12/28 07:52:37;;;;;;;4.10;3.90;;;;;;;6.84;100.00;98941.81;4372937;32;20069;-73
2021/12/28 07:55:04;;;;;;;4.80;4.60;;;;;;;6.75;100.00;98951.84;4362983;32;20580;-73
2021/12/28 07:57:30;;;;;;;3.60;3.50;;;;;;;6.38;100.00;98901.28;4350386;32;20267;-74
2021/12/28 07:59:56;;;;;;;4.80;4.60;;;;;;;6.70;100.00;98953.12;4367456;32;20733;-74
2021/12/28 08:02:21;;;;;;;3.50;3.40;;;;;;;6.75;100.00;98959.69;4353792;32;20382;-73
2021/12/28 08:04:46;;;;;;;3.60;3.50;;;;;;;6.55;100.00;98927.06;4363609;32;20521;-73
2021/12/28 08:07:12;;;;;;;3.50;3.40;;;;;;;6.94;100.00;98961.12;4363604;32;20104;-73
2021/12/28 08:09:37;;;;;;;3.97;3.78;;;;;;;6.94;100.00;98950.69;4377719;32;20065;-73
2021/12/28 08:12:03;;;;;;;5.00;4.80;;;;;;;7.14;100.00;98967.66;4375272;32;20131;-72
2021/12/28 08:14:28;;;;;;;3.53;3.42;;;;;;;7.22;100.00;98974.94;4366782;32;20466;-72
2021/12/28 08:16:54;;;;;;;4.00;3.80;;;;;;;7.29;100.00;98981.44;4345657;32;20458;-72
2021/12/28 08:19:20;;;;;;;3.65;3.55;;;;;;;7.33;100.00;98980.28;4350006;32;20077;-73
2021/12/28 08:21:45;;;;;;;3.58;3.47;;;;;;;6.81;100.00;98898.50;4372080;32;20069;-73
2021/12/28 08:24:10;;;;;;;3.87;3.70;;;;;;;7.44;100.00;98971.75;4351099;32;20074;-73
2021/12/28 08:26:36;;;;;;;3.58;3.47;;;;;;;7.43;100.00;98967.47;4378797;32;20418;-74
2021/12/28 08:29:01;;;;;;;19.12;5.55;;;;;;;7.49;100.00;98965.28;4350117;32;20076;-74
2021/12/28 08:31:26;;;;;;;3.70;3.60;;;;;;;7.54;100.00;98959.78;4365126;32;20069;-74
2021/12/28 08:33:52;;;;;;;4.68;4.47;;;;;;;7.47;100.00;98948.87;4365618;32;20088;-73
2021/12/28 08:36:17;;;;;;;3.67;3.58;;;;;;;7.51;100.00;98960.78;4345500;32;20217;-73
2021/12/28 08:38:43;;;;;;;3.53;3.42;;;;;;;7.37;100.00;98935.63;4369677;32;20065;-74
2021/12/28 08:41:09;;;;;;;4.07;3.87;;;;;;;7.48;100.00;98955.78;4353659;32;20542;-73
2021/12/28 08:43:35;;;;;;;3.55;3.45;;;;;;;7.57;100.00;98969.97;4355893;32;20151;-72
2021/12/28 08:46:00;;;;;;;4.87;4.68;;;;;;;7.61;100.00;98966.22;4374640;32;20457;-74
2021/12/28 08:48:25;;;;;;;3.80;3.70;;;;;;;7.67;100.00;98980.66;4367248;32;20078;-74
2021/12/28 08:50:51;;;;;;;5.35;5.15;;;;;;;7.65;100.00;98962.47;4364258;32;20610;-74
2021/12/28 08:53:16;;;;;;;3.60;3.50;;;;;;;7.62;100.00;98946.16;4355263;32;20203;-74
2021/12/28 08:55:42;;;;;;;3.72;3.62;;;;;;;7.75;100.00;98960.06;4362962;32;20064;-73
2021/12/28 08:58:07;;;;;;;4.40;4.20;;;;;;;7.48;100.00;98910.59;4356255;32;20408;-74
2021/12/28 09:00:34;;;;;;;3.80;3.70;;;;;;;7.82;100.00;98965.69;4363119;32;20602;-73
2021/12/28 09:02:59;;;;;;;5.68;5.47;;;;;;;7.84;100.00;98961.19;4379366;32;20081;-75
2021/12/28 09:05:26;;;;;;;3.80;3.70;;;;;;;7.82;100.00;98960.47;4368049;32;20489;-74
2021/12/28 09:07:51;;;;;;;4.82;4.62;;;;;;;7.88;100.00;98960.09;4373337;32;20124;-73
2021/12/28 09:10:17;;;;;;;4.03;3.83;;;;;;;7.98;100.00;98953.28;4360424;32;20073;-73
2021/12/28 09:12:42;;;;;;;3.78;3.67;;;;;;;8.03;100.00;98952.94;4374955;32;20670;-72
2021/12/28 09:15:08;;;;;;;4.20;4.00;;;;;;;7.95;100.00;98941.25;4355430;32;20155;-74
2021/12/28 09:17:34;;;;;;;3.90;3.70;;;;;;;8.08;100.00;98946.47;4365543;32;20065;-74
2021/12/28 09:20:00;;;;;;;5.55;5.35;;;;;;;8.14;100.00;98947.81;4358376;32;20159;-74
2021/12/28 09:22:25;;;;;;;4.20;4.00;;;;;;;8.18;100.00;98946.66;4365538;32;20110;-74
2021/12/28 09:24:51;;;;;;;4.60;4.40;;;;;;;8.23;100.00;98946.31;4360653;32;20188;-73
2021/12/28 09:27:17;;;;;;;3.70;3.60;;;;;;;8.27;100.00;98938.16;4347310;32;20518;-74
2021/12/28 09:29:43;;;;;;;3.90;3.80;;;;;;;8.32;100.00;98936.06;4370594;32;20074;-74
2021/12/28 09:32:08;;;;;;;4.30;4.10;;;;;;;8.36;100.00;98937.50;4346020;32;20960;-73
2021/12/28 09:34:33;;;;;;;4.00;3.80;;;;;;;8.11;100.00;98887.94;4351094;32;20148;-73
2021/12/28 09:36:59;;;;;;;4.10;3.90;;;;;;;8.46;100.00;98931.63;4359171;32;20092;-74
2021/12/28 09:39:26;;;;;;;3.92;3.80;;;;;;;8.51;100.00;98932.16;4357352;32;20501;-74
2021/12/28 09:41:52;;;;;;;5.12;4.93;;;;;;;8.48;100.00;98934.97;4363311;32;20092;-73
2021/12/28 09:44:17;;;;;;;4.05;3.85;;;;;;;8.48;100.00;98938.44;4354394;32;20176;-72
2021/12/28 09:46:43;;;;;;;4.50;4.30;;;;;;;8.50;100.00;98926.09;4371199;32;20496;-73
2021/12/28 09:49:08;;;;;;;4.62;4.43;;;;;;;8.42;100.00;98914.50;4353123;32;20384;-74
2021/12/28 09:51:34;;;;;;;4.10;3.90;;;;;;;8.49;100.00;98928.81;4361495;32;20109;-73
2021/12/28 09:53:59;;;;;;;5.62;5.35;;;;;;;8.28;100.00;98886.72;4368082;32;20076;-75
2021/12/28 09:56:24;;;;;;;4.10;3.90;;;;;;;8.54;100.00;98935.38;4361604;32;20101;-74
2021/12/28 09:58:50;;;;;;;4.82;4.62;;;;;;;8.59;100.00;98933.25;4369665;32;20069;-72
2021/12/28 10:01:15;;;;;;;4.80;4.60;;;;;;;8.31;100.00;98889.94;4359742;32;20201;-73
2021/12/28 10:03:41;;;;;;;3.90;3.80;;;;;;;8.58;100.00;98909.84;4370964;32;20159;-73
2021/12/28 10:06:14;;;;;;;4.25;4.05;;;;;;;8.69;100.00;98930.81;4364316;32;20083;-74
2021/12/28 10:08:40;;;;;;;3.70;3.60;;;;;;;8.67;100.00;98942.34;4357392;32;20088;-72
2021/12/28 10:11:05;;;;;;;3.78;3.67;;;;;;;8.65;100.00;98924.13;4371325;32;20058;-73
2021/12/28 10:13:30;;;;;;;4.45;4.25;;;;;;;8.69;100.00;98920.34;4356294;32;20061;-74
2021/12/28 10:15:56;;;;;;;6.25;5.95;;;;;;;8.72;100.00;98919.28;4369003;32;20073;-73
2021/12/28 10:18:21;;;;;;;3.97;3.80;;;;;;;8.72;100.00;98914.91;4349749;32;20438;-74
2021/12/28 10:21:08;;;;;;;4.20;4.00;;;;;;;7.98;100.00;98814.84;4346659;32;20139;-73
2021/12/28 10:23:34;;;;;;;4.00;3.80;;;;;;;8.73;100.00;98907.91;4361469;32;20080;-74
2021/12/28 10:26:05;;;;;;;6.05;5.75;;;;;;;8.62;100.00;98885.16;4363075;32;20069;-74
2021/12/28 10:28:35;;;;;;;4.35;4.15;;;;;;;8.64;100.00;98891.09;4353796;32;20081;-72
2021/12/28 10:31:05;;;;;;;5.50;5.30;;;;;;;8.64;100.00;98888.50;4360975;32;20091;-73
2021/12/28 10:33:32;;;;;;;3.75;3.65;;;;;;;8.68;100.00;98879.47;4350021;32;20093;-76
2021/12/28 10:36:00;;;;;;;5.50;5.30;;;;;;;8.75;100.00;98870.22;4366119;32;20449;-72
2021/12/28 10:38:27;;;;;;;4.10;3.90;;;;;;;8.82;100.00;98878.47;4361249;32;20188;-74
2021/12/28 10:40:58;;;;;;;5.43;5.22;;;;;;;8.90;100.00;98878.72;4360769;32;20332;-74
2021/12/28 10:43:26;;;;;;;4.00;3.80;;;;;;;8.94;100.00;98864.47;4371873;32;20177;-73
2021/12/28 10:45:59;;;;;;;4.97;4.78;;;;;;;8.78;100.00;98843.84;4362530;32;20070;-71
2021/12/28 10:48:27;;;;;;;4.07;3.87;;;;;;;8.85;100.00;98864.31;4354431;32;20112;-73
2021/12/28 10:50:59;;;;;;;4.72;4.53;;;;;;;8.84;100.00;98862.62;4349426;32;20088;-73
2021/12/28 10:53:33;;;;;;;4.00;3.80;;;;;;;8.83;100.00;98850.50;4377381;32;20081;-72
2021/12/28 10:55:59;;;;;;;6.20;5.62;;;;;;;8.72;100.00;98832.97;4365885;32;20065;-72
2021/12/28 10:58:35;;;;;;;4.05;3.85;;;;;;;8.82;100.00;98854.06;4365910;32;20115;-75
2021/12/28 11:01:20;;;;;;;5.65;5.43;;;;;;;8.69;100.00;98833.22;4364484;32;20646;-76
2021/12/28 11:03:47;;;;;;;3.97;3.80;;;;;;;8.86;100.00;98839.81;4356240;32;20575;-75
2021/12/28 11:06:15;;;;;;;4.70;4.47;;;;;;;8.83;100.00;98819.94;4349819;32;20722;-75
2021/12/28 11:08:42;;;;;;;4.12;3.92;;;;;;;9.02;100.00;98819.41;4370245;32;20068;-75
2021/12/28 11:11:11;;;;;;;4.20;4.00;;;;;;;8.97;100.00;98811.06;4363443;32;20294;-75
2021/12/28 11:13:36;;;;;;;4.20;4.00;;;;;;;9.06;100.00;98817.38;4370906;32;20083;-75
2021/12/28 11:16:02;;;;;;;5.30;5.10;;;;;;;9.06;100.00;98814.75;4350409;32;20768;-74
2021/12/28 11:18:31;;;;;;;4.15;3.95;;;;;;;9.12;100.00;98812.53;4352614;32;20223;-74
2021/12/28 11:21:17;;;;;;;5.78;5.55;;;;;;;9.19;100.00;98805.84;4367007;32;20089;-74
2021/12/28 11:23:42;;;;;;;4.20;4.00;;;;;;;9.22;100.00;98796.09;4365713;32;20168;-74
2021/12/28 11:26:20;;;;;;;4.25;4.05;;;;;;;9.33;100.00;98793.50;4353674;32;20470;-74
2021/12/28 11:29:03;;;;;;;4.07;3.87;;;;;;;9.37;100.00;98790.50;4356725;32;20454;-76